Time;durP1;ratioP1;P1;durP2;ratioP2;P2;SDS_P1;SDS_P2;PMS_P1;PMS_P2;Temp;Humidity;BMP_temperature;BMP_pressure;BME280_temperature;BME280_humidity;BME280_pressure;Samples;Min_cycle;Max_cycle;Signal;HPM_P1;HPM_P2
2022/07/19 00:01:43;;;;;;;6.13;3.88;;;;;;;;;;5093592;28;20035;-39
2022/07/19 00:04:09;;;;;;;4.20;3.25;;;;;;;;;;5093078;28;20040;-41
2022/07/19 00:06:35;;;;;;;9.02;3.13;;;;;;;;;;5093579;28;20472;-39
2022/07/19 00:09:01;;;;;;;5.95;3.83;;;;;;;;;;5093496;28;20024;-38
2022/07/19 00:11:27;;;;;;;6.82;3.70;;;;;;;;;;5093683;28;20024;-40
2022/07/19 00:13:53;;;;;;;3.80;2.60;;;;;;;;;;5093199;28;20024;-40
2022/07/19 00:16:19;;;;;;;6.22;3.10;;;;;;;;;;5093383;28;20031;-39
2022/07/19 00:18:45;;;;;;;4.28;3.03;;;;;;;;;;5093221;28;20028;-39
2022/07/19 00:21:11;;;;;;;6.03;3.63;;;;;;;;;;5093582;28;20495;-39
2022/07/19 00:23:37;;;;;;;6.57;3.67;;;;;;;;;;5091922;28;20036;-38
2022/07/19 00:26:03;;;;;;;6.70;2.97;;;;;;;;;;5093149;28;20024;-38
2022/07/19 00:28:29;;;;;;;4.85;3.08;;;;;;;;;;5093465;28;20031;-39
2022/07/19 00:30:55;;;;;;;6.28;3.30;;;;;;;;;;5093576;28;20025;-38
2022/07/19 00:33:21;;;;;;;10.65;6.53;;;;;;;;;;5091939;28;20028;-40
2022/07/19 00:35:47;;;;;;;4.70;3.05;;;;;;;;;;5093562;28;20035;-40
2022/07/19 00:38:14;;;;;;;6.93;3.53;;;;;;;;;;5093260;28;20032;-39
2022/07/19 00:40:41;;;;;;;6.25;3.53;;;;;;;;;;5092996;28;20516;-39
2022/07/19 00:43:07;;;;;;;8.88;3.40;;;;;;;;;;5093016;28;20024;-39
2022/07/19 00:45:34;;;;;;;7.00;2.90;;;;;;;;;;5093018;28;20479;-39
2022/07/19 00:48:00;;;;;;;8.73;4.57;;;;;;;;;;5092922;28;20069;-38
2022/07/19 00:50:27;;;;;;;7.97;3.05;;;;;;;;;;5094854;28;20474;-40
2022/07/19 00:52:54;;;;;;;4.35;3.17;;;;;;;;;;5096209;28;20028;-39
2022/07/19 00:55:21;;;;;;;9.07;3.35;;;;;;;;;;5096888;28;20024;-39
2022/07/19 00:57:47;;;;;;;7.57;2.90;;;;;;;;;;5096661;28;20472;-38
2022/07/19 01:00:15;;;;;;;4.45;2.60;;;;;;;;;;5096608;28;20376;-39
2022/07/19 01:02:41;;;;;;;7.22;3.03;;;;;;;;;;5096532;28;20046;-39
2022/07/19 01:05:08;;;;;;;3.45;2.92;;;;;;;;;;5096577;28;20022;-39
2022/07/19 01:07:34;;;;;;;4.38;2.50;;;;;;;;;;5094994;28;20024;-39
2022/07/19 01:10:01;;;;;;;4.68;2.42;;;;;;;;;;5096984;28;20456;-37
2022/07/19 01:12:28;;;;;;;7.10;2.50;;;;;;;;;;5094949;28;20023;-38
2022/07/19 01:14:57;;;;;;;5.38;2.80;;;;;;;;;;5097809;28;20035;-38
2022/07/19 01:17:23;;;;;;;10.88;3.30;;;;;;;;;;5096196;28;20371;-38
2022/07/19 01:19:50;;;;;;;4.80;2.92;;;;;;;;;;5096438;28;20423;-38
2022/07/19 01:22:16;;;;;;;4.72;3.22;;;;;;;;;;5094871;28;20032;-38
2022/07/19 01:24:42;;;;;;;4.20;2.65;;;;;;;;;;5096401;28;20476;-39
2022/07/19 01:27:08;;;;;;;5.97;3.38;;;;;;;;;;5096256;28;20510;-39
2022/07/19 01:29:36;;;;;;;6.60;2.88;;;;;;;;;;5096203;28;20020;-39
2022/07/19 01:32:02;;;;;;;7.50;2.85;;;;;;;;;;5096675;28;20115;-39
2022/07/19 01:34:28;;;;;;;7.25;2.88;;;;;;;;;;5096560;28;20020;-39
2022/07/19 01:36:54;;;;;;;4.78;2.30;;;;;;;;;;5096291;28;20375;-39
2022/07/19 01:39:20;;;;;;;3.00;1.98;;;;;;;;;;5096489;28;20055;-38
2022/07/19 01:41:46;;;;;;;5.68;2.75;;;;;;;;;;5096188;28;20024;-38
2022/07/19 01:44:12;;;;;;;9.23;2.95;;;;;;;;;;5096076;28;20494;-38
2022/07/19 01:46:38;;;;;;;7.90;2.85;;;;;;;;;;5096368;28;20102;-38
2022/07/19 01:49:04;;;;;;;5.50;2.63;;;;;;;;;;5096519;28;20404;-38
2022/07/19 01:51:30;;;;;;;5.47;2.85;;;;;;;;;;5096151;28;20103;-38
2022/07/19 01:53:56;;;;;;;3.88;2.60;;;;;;;;;;5094516;28;20109;-38
2022/07/19 01:56:23;;;;;;;6.85;2.92;;;;;;;;;;5095860;28;20546;-39
2022/07/19 01:58:49;;;;;;;4.22;3.13;;;;;;;;;;5095738;28;20189;-38
2022/07/19 02:01:15;;;;;;;10.63;3.88;;;;;;;;;;5095291;28;20310;-38
2022/07/19 02:03:41;;;;;;;4.50;2.67;;;;;;;;;;5095153;28;20051;-38
2022/07/19 02:06:08;;;;;;;5.82;3.05;;;;;;;;;;5095659;28;20028;-37
2022/07/19 02:08:34;;;;;;;10.90;3.13;;;;;;;;;;5095450;28;20029;-37
2022/07/19 02:11:34;;;;;;;7.45;3.60;;;;;;;;;;5095479;28;20051;-39
2022/07/19 02:13:46;;;;;;;7.32;3.97;;;;;;;;;;5095090;28;20168;-38
2022/07/19 02:16:12;;;;;;;5.38;3.20;;;;;;;;;;5095117;28;20037;-38
2022/07/19 02:18:38;;;;;;;4.50;3.15;;;;;;;;;;5093939;28;20140;-39
2022/07/19 02:21:04;;;;;;;18.02;4.20;;;;;;;;;;5095870;28;20024;-38
2022/07/19 02:23:30;;;;;;;5.93;3.53;;;;;;;;;;5095063;28;20024;-37
2022/07/19 02:25:56;;;;;;;6.65;3.70;;;;;;;;;;5095744;28;20024;-37
2022/07/19 02:28:22;;;;;;;10.02;4.68;;;;;;;;;;5093642;28;20035;-38
2022/07/19 02:30:48;;;;;;;8.27;3.80;;;;;;;;;;5094791;28;20024;-39
2022/07/19 02:33:14;;;;;;;7.50;3.33;;;;;;;;;;5095046;28;20380;-38
2022/07/19 02:35:40;;;;;;;8.07;3.53;;;;;;;;;;5094803;28;20041;-38
2022/07/19 02:38:06;;;;;;;9.30;4.43;;;;;;;;;;5094772;28;20140;-38
2022/07/19 02:40:32;;;;;;;5.75;3.38;;;;;;;;;;5094704;28;20024;-38
2022/07/19 02:42:58;;;;;;;8.55;4.63;;;;;;;;;;5093309;28;20141;-40
2022/07/19 02:45:24;;;;;;;9.63;3.63;;;;;;;;;;5094613;28;20045;-37
2022/07/19 02:47:50;;;;;;;10.40;3.58;;;;;;;;;;5094601;28;20482;-39
2022/07/19 02:50:16;;;;;;;9.20;3.80;;;;;;;;;;5094569;28;20034;-37
2022/07/19 02:52:42;;;;;;;11.70;3.20;;;;;;;;;;5094385;28;20163;-38
2022/07/19 02:55:08;;;;;;;5.00;3.08;;;;;;;;;;5094324;28;20464;-38
2022/07/19 02:57:34;;;;;;;15.55;5.95;;;;;;;;;;5094352;28;20443;-38
2022/07/19 03:00:00;;;;;;;8.82;3.58;;;;;;;;;;5094239;28;20119;-38
2022/07/19 03:02:26;;;;;;;7.28;3.33;;;;;;;;;;5094316;28;20028;-38
2022/07/19 03:04:52;;;;;;;9.63;4.13;;;;;;;;;;5094047;28;20039;-39
2022/07/19 03:07:18;;;;;;;8.48;3.00;;;;;;;;;;5094167;28;20019;-39
2022/07/19 03:09:45;;;;;;;7.85;3.45;;;;;;;;;;5094453;28;20028;-38
2022/07/19 03:12:11;;;;;;;9.85;3.42;;;;;;;;;;5093861;28;20348;-38
2022/07/19 03:14:37;;;;;;;6.22;3.70;;;;;;;;;;5093806;28;20032;-38
2022/07/19 20:02:31;;;;;;;10.82;2.78;;;;;;;;;;5090853;27;20414;-49
2022/07/19 20:04:57;;;;;;;4.43;3.33;;;;;;;;;;5090456;28;20097;-47
2022/07/19 20:07:23;;;;;;;4.30;2.88;;;;;;;;;;5089180;28;20024;-46
2022/07/19 20:09:49;;;;;;;14.95;2.88;;;;;;;;;;5092235;28;20021;-44
2022/07/19 20:12:15;;;;;;;6.22;3.00;;;;;;;;;;5095965;28;20032;-40
2022/07/19 20:14:41;;;;;;;4.10;2.60;;;;;;;;;;5094390;28;20437;-45
2022/07/19 20:17:08;;;;;;;10.52;3.13;;;;;;;;;;5090446;28;20033;-39
2022/07/19 20:19:34;;;;;;;10.90;3.22;;;;;;;;;;5090599;28;20024;-39
2022/07/19 20:22:01;;;;;;;5.72;3.42;;;;;;;;;;5090558;28;20028;-39
2022/07/19 20:24:27;;;;;;;7.18;3.00;;;;;;;;;;5090225;28;20026;-38
2022/07/19 20:26:53;;;;;;;5.22;3.10;;;;;;;;;;5090326;28;20039;-39
2022/07/19 20:29:19;;;;;;;4.82;2.47;;;;;;;;;;5090871;28;20091;-38
2022/07/19 20:31:45;;;;;;;4.30;2.78;;;;;;;;;;5090658;28;20429;-40
2022/07/19 20:34:11;;;;;;;6.57;3.08;;;;;;;;;;5091323;28;20074;-39
2022/07/19 20:36:37;;;;;;;8.35;4.40;;;;;;;;;;5088957;28;20021;-39
2022/07/19 20:39:06;;;;;;;4.80;3.05;;;;;;;;;;5090696;28;20468;-40
2022/07/19 20:41:32;;;;;;;5.67;3.30;;;;;;;;;;5070236;28;20044;-39
2022/07/19 20:43:58;;;;;;;7.15;3.60;;;;;;;;;;5069849;28;20258;-38
2022/07/19 20:46:24;;;;;;;6.47;4.22;;;;;;;;;;5069915;28;20021;-40
2022/07/19 20:48:51;;;;;;;5.93;3.10;;;;;;;;;;5068597;28;20037;-39
2022/07/19 20:51:17;;;;;;;4.47;2.85;;;;;;;;;;5070034;28;20384;-38
2022/07/19 20:53:44;;;;;;;6.13;2.83;;;;;;;;;;5070255;28;20040;-39
2022/07/19 20:56:10;;;;;;;4.40;2.78;;;;;;;;;;5069563;28;20049;-39
2022/07/19 20:58:36;;;;;;;11.85;3.97;;;;;;;;;;5070082;28;20029;-38
2022/07/19 21:01:02;;;;;;;5.72;4.65;;;;;;;;;;5069448;28;20059;-39
2022/07/19 21:03:28;;;;;;;3.97;3.58;;;;;;;;;;5069593;28;20071;-39
2022/07/19 21:05:55;;;;;;;9.02;3.13;;;;;;;;;;5069311;28;20025;-40
2022/07/19 21:08:21;;;;;;;10.63;3.90;;;;;;;;;;5069309;28;20071;-37
2022/07/19 21:10:47;;;;;;;7.28;2.97;;;;;;;;;;5069434;28;20021;-39
2022/07/19 21:13:13;;;;;;;4.43;2.97;;;;;;;;;;5059482;28;20151;-39
2022/07/19 21:15:39;;;;;;;4.75;2.63;;;;;;;;;;5055652;28;20108;-38
2022/07/19 21:18:05;;;;;;;6.25;3.00;;;;;;;;;;5056373;28;20021;-39
2022/07/19 21:20:31;;;;;;;7.13;2.90;;;;;;;;;;5054306;28;20021;-39
2022/07/19 21:22:57;;;;;;;4.38;2.67;;;;;;;;;;5056294;28;20018;-39
2022/07/19 21:25:23;;;;;;;4.95;3.47;;;;;;;;;;5056043;28;20025;-39
2022/07/19 21:27:49;;;;;;;4.35;2.88;;;;;;;;;;5055775;28;20476;-39
2022/07/19 21:30:16;;;;;;;5.72;2.72;;;;;;;;;;5054839;28;20488;-40
2022/07/19 21:32:42;;;;;;;4.85;2.75;;;;;;;;;;5055394;28;20045;-40
2022/07/19 21:35:08;;;;;;;5.03;2.72;;;;;;;;;;5055622;28;20029;-39
2022/07/19 21:37:35;;;;;;;14.32;7.63;;;;;;;;;;5055261;28;20025;-39
2022/07/19 21:40:01;;;;;;;2.97;2.67;;;;;;;;;;5055278;28;20021;-42
2022/07/19 21:42:27;;;;;;;3.80;3.22;;;;;;;;;;5053903;28;20108;-38
2022/07/19 21:44:53;;;;;;;5.70;3.35;;;;;;;;;;5055487;28;20025;-39
2022/07/19 21:47:19;;;;;;;5.57;3.20;;;;;;;;;;5053901;28;20069;-39
2022/07/19 21:49:45;;;;;;;7.38;3.13;;;;;;;;;;5055054;28;20021;-38
2022/07/19 21:52:11;;;;;;;4.75;3.42;;;;;;;;;;5055356;28;20029;-39
2022/07/19 21:54:37;;;;;;;7.55;3.63;;;;;;;;;;5054904;28;20108;-38
2022/07/19 21:57:03;;;;;;;3.65;2.92;;;;;;;;;;5053864;28;20025;-40
2022/07/19 21:59:29;;;;;;;4.40;2.90;;;;;;;;;;5054951;28;20033;-39
2022/07/19 22:01:55;;;;;;;8.85;3.60;;;;;;;;;;5054756;28;20041;-39
2022/07/19 22:04:21;;;;;;;6.07;3.03;;;;;;;;;;5054991;28;20107;-38
2022/07/19 22:06:47;;;;;;;5.45;2.78;;;;;;;;;;5055118;28;20354;-39
2022/07/19 22:09:13;;;;;;;10.20;3.55;;;;;;;;;;5053513;28;20024;-38
2022/07/19 22:11:39;;;;;;;4.53;2.83;;;;;;;;;;5054886;28;20369;-39
2022/07/19 22:14:06;;;;;;;6.90;3.15;;;;;;;;;;5055088;28;20025;-38
2022/07/19 22:16:32;;;;;;;5.53;3.10;;;;;;;;;;5055172;28;20028;-39
2022/07/19 22:18:58;;;;;;;7.80;3.13;;;;;;;;;;5055027;28;20029;-42
2022/07/19 22:21:24;;;;;;;6.57;3.60;;;;;;;;;;5053368;28;20075;-39
2022/07/19 22:23:51;;;;;;;5.90;3.08;;;;;;;;;;5052597;28;20066;-39
2022/07/19 22:26:17;;;;;;;3.40;3.03;;;;;;;;;;5054348;28;20028;-38
2022/07/19 22:28:43;;;;;;;3.50;2.97;;;;;;;;;;5054910;28;20029;-38
2022/07/19 22:31:09;;;;;;;4.20;2.95;;;;;;;;;;5054722;28;20114;-42
2022/07/19 22:33:35;;;;;;;8.25;3.35;;;;;;;;;;5054389;28;20028;-39
2022/07/19 22:36:01;;;;;;;4.35;3.00;;;;;;;;;;5053017;28;20108;-38
2022/07/19 22:38:27;;;;;;;4.20;3.00;;;;;;;;;;5054504;28;20128;-38
2022/07/19 22:40:53;;;;;;;5.53;3.20;;;;;;;;;;5054033;28;20033;-42
2022/07/19 22:43:19;;;;;;;7.53;3.67;;;;;;;;;;5054103;28;20029;-38
2022/07/19 22:45:45;;;;;;;4.40;3.65;;;;;;;;;;5054329;28;20453;-38
2022/07/19 22:48:11;;;;;;;4.80;3.05;;;;;;;;;;5054168;28;20017;-38
2022/07/19 22:50:38;;;;;;;6.15;3.17;;;;;;;;;;5052620;28;20029;-39
2022/07/19 22:53:05;;;;;;;4.00;2.92;;;;;;;;;;5054223;28;20082;-38
2022/07/19 22:55:31;;;;;;;5.55;2.75;;;;;;;;;;5054074;28;20184;-39
2022/07/19 22:57:57;;;;;;;4.22;3.20;;;;;;;;;;5052473;28;20041;-38
2022/07/19 23:00:23;;;;;;;6.30;2.83;;;;;;;;;;5053409;28;20060;-39
2022/07/19 23:02:49;;;;;;;5.57;3.42;;;;;;;;;;5053992;28;20063;-39
2022/07/19 23:05:15;;;;;;;5.03;2.83;;;;;;;;;;5053794;28;20021;-38
2022/07/19 23:07:41;;;;;;;5.10;2.92;;;;;;;;;;5053707;28;20036;-38
2022/07/19 23:10:07;;;;;;;6.13;3.67;;;;;;;;;;5052783;28;20017;-38
2022/07/19 23:12:33;;;;;;;5.95;3.90;;;;;;;;;;5052269;28;20033;-37
2022/07/19 23:14:59;;;;;;;4.80;3.00;;;;;;;;;;5053742;28;20036;-38
2022/07/19 23:17:25;;;;;;;8.00;3.28;;;;;;;;;;5052172;28;20029;-39
2022/07/19 23:19:52;;;;;;;7.03;3.60;;;;;;;;;;5053544;28;20025;-38
2022/07/19 23:22:17;;;;;;;4.40;3.08;;;;;;;;;;5054078;28;20468;-38
2022/07/19 23:24:44;;;;;;;7.20;3.45;;;;;;;;;;5053732;28;20025;-38
2022/07/19 23:27:10;;;;;;;6.88;4.32;;;;;;;;;;5053372;28;20025;-39
2022/07/19 23:29:36;;;;;;;5.45;3.10;;;;;;;;;;5053550;28;20514;-39
2022/07/19 23:32:02;;;;;;;9.00;3.15;;;;;;;;;;5053353;28;20029;-38
2022/07/19 23:34:28;;;;;;;4.72;2.95;;;;;;;;;;5053486;28;20021;-38
2022/07/19 23:36:54;;;;;;;6.72;3.50;;;;;;;;;;5053182;28;20050;-38
2022/07/19 23:39:20;;;;;;;4.82;3.03;;;;;;;;;;5053280;28;20480;-38
2022/07/19 23:41:46;;;;;;;8.73;3.25;;;;;;;;;;5051738;28;20032;-40
2022/07/19 23:44:12;;;;;;;9.27;3.30;;;;;;;;;;5052481;28;20259;-39
2022/07/19 23:46:38;;;;;;;3.88;3.13;;;;;;;;;;5053012;28;20105;-39
2022/07/19 23:49:04;;;;;;;6.85;3.17;;;;;;;;;;5053154;28;20028;-39
2022/07/19 23:51:30;;;;;;;4.15;3.33;;;;;;;;;;5051807;28;20114;-39
2022/07/19 23:53:56;;;;;;;7.35;3.75;;;;;;;;;;5053072;28;20029;-40
2022/07/19 23:56:22;;;;;;;5.88;2.97;;;;;;;;;;5053113;28;20056;-38
2022/07/19 23:58:48;;;;;;;4.13;3.72;;;;;;;;;;5053076;28;20029;-38
